sensor_id;sensor_type;location;lat;lon;timestamp;temperature;humidity
43346;DHT22;28937;51.160;4.146;2023-08-06T00:02:19;18.80;99.90
43346;DHT22;28937;51.160;4.146;2023-08-06T00:04:45;18.90;99.90
43346;DHT22;28937;51.160;4.146;2023-08-06T00:07:10;18.90;99.90
43346;DHT22;28937;51.160;4.146;2023-08-06T00:09:36;18.90;99.90
43346;DHT22;28937;51.160;4.146;2023-08-06T00:12:02;18.80;99.90
43346;DHT22;28937;51.160;4.146;2023-08-06T00:14:27;18.80;99.90
43346;DHT22;28937;51.160;4.146;2023-08-06T00:16:53;18.80;99.90
43346;DHT22;28937;51.160;4.146;2023-08-06T00:19:18;18.80;99.90
43346;DHT22;28937;51.160;4.146;2023-08-06T00:21:44;18.80;99.90
43346;DHT22;28937;51.160;4.146;2023-08-06T00:24:09;18.80;99.90
43346;DHT22;28937;51.160;4.146;2023-08-06T00:26:35;18.80;99.90
43346;DHT22;28937;51.160;4.146;2023-08-06T00:29:01;18.80;99.90
43346;DHT22;28937;51.160;4.146;2023-08-06T00:31:26;18.80;99.90
43346;DHT22;28937;51.160;4.146;2023-08-06T00:33:52;18.80;99.90
43346;DHT22;28937;51.160;4.146;2023-08-06T00:36:17;18.80;99.90
43346;DHT22;28937;51.160;4.146;2023-08-06T00:38:43;18.90;99.90
43346;DHT22;28937;51.160;4.146;2023-08-06T00:41:09;18.80;99.90
43346;DHT22;28937;51.160;4.146;2023-08-06T00:43:34;18.80;99.90
43346;DHT22;28937;51.160;4.146;2023-08-06T00:46:00;18.80;99.90
43346;DHT22;28937;51.160;4.146;2023-08-06T00:48:26;18.80;99.90
43346;DHT22;28937;51.160;4.146;2023-08-06T00:50:52;18.80;99.90
43346;DHT22;28937;51.160;4.146;2023-08-06T00:53:17;18.90;99.90
43346;DHT22;28937;51.160;4.146;2023-08-06T00:55:44;18.90;99.90
43346;DHT22;28937;51.160;4.146;2023-08-06T00:58:11;18.90;99.90
43346;DHT22;28937;51.160;4.146;2023-08-06T01:00:36;18.60;99.90
43346;DHT22;28937;51.160;4.146;2023-08-06T01:03:03;17.80;99.90
43346;DHT22;28937;51.160;4.146;2023-08-06T01:05:29;17.30;99.90
43346;DHT22;28937;51.160;4.146;2023-08-06T01:11:18;16.90;99.90
43346;DHT22;28937;51.160;4.146;2023-08-06T01:13:46;16.80;99.90
43346;DHT22;28937;51.160;4.146;2023-08-06T01:16:15;16.70;99.90
43346;DHT22;28937;51.160;4.146;2023-08-06T01:18:42;16.70;99.90
43346;DHT22;28937;51.160;4.146;2023-08-06T01:21:14;16.60;99.90
43346;DHT22;28937;51.160;4.146;2023-08-06T01:23:41;16.50;99.90
43346;DHT22;28937;51.160;4.146;2023-08-06T01:31:27;16.50;99.90
43346;DHT22;28937;51.160;4.146;2023-08-06T01:33:58;16.50;99.90
43346;DHT22;28937;51.160;4.146;2023-08-06T01:36:24;16.50;99.90
43346;DHT22;28937;51.160;4.146;2023-08-06T01:38:52;16.50;99.90
43346;DHT22;28937;51.160;4.146;2023-08-06T01:41:18;16.40;99.90
43346;DHT22;28937;51.160;4.146;2023-08-06T01:43:44;16.40;99.90
43346;DHT22;28937;51.160;4.146;2023-08-06T01:46:10;16.40;99.90
43346;DHT22;28937;51.160;4.146;2023-08-06T01:48:35;16.50;99.90
43346;DHT22;28937;51.160;4.146;2023-08-06T01:51:03;16.40;99.90
43346;DHT22;28937;51.160;4.146;2023-08-06T01:53:29;16.40;99.90
43346;DHT22;28937;51.160;4.146;2023-08-06T01:55:54;16.30;99.90
43346;DHT22;28937;51.160;4.146;2023-08-06T01:58:20;16.40;99.90
43346;DHT22;28937;51.160;4.146;2023-08-06T02:00:46;16.40;99.90
43346;DHT22;28937;51.160;4.146;2023-08-06T02:03:11;16.40;99.90
43346;DHT22;28937;51.160;4.146;2023-08-06T02:05:37;16.40;99.90
43346;DHT22;28937;51.160;4.146;2023-08-06T02:08:02;16.50;99.90
43346;DHT22;28937;51.160;4.146;2023-08-06T02:10:28;16.40;99.90
43346;DHT22;28937;51.160;4.146;2023-08-06T02:12:53;16.40;99.90
43346;DHT22;28937;51.160;4.146;2023-08-06T02:15:19;16.50;99.90
43346;DHT22;28937;51.160;4.146;2023-08-06T02:17:44;16.40;99.90
43346;DHT22;28937;51.160;4.146;2023-08-06T02:20:10;16.40;99.90
43346;DHT22;28937;51.160;4.146;2023-08-06T02:22:36;16.40;99.90
43346;DHT22;28937;51.160;4.146;2023-08-06T02:25:01;16.40;99.90
43346;DHT22;28937;51.160;4.146;2023-08-06T02:27:27;16.40;99.90
43346;DHT22;28937;51.160;4.146;2023-08-06T02:29:53;16.40;99.90
43346;DHT22;28937;51.160;4.146;2023-08-06T02:32:18;16.40;99.90
43346;DHT22;28937;51.160;4.146;2023-08-06T02:34:44;16.40;99.90
43346;DHT22;28937;51.160;4.146;2023-08-06T02:37:09;16.40;99.90
43346;DHT22;28937;51.160;4.146;2023-08-06T02:39:35;16.40;99.90
43346;DHT22;28937;51.160;4.146;2023-08-06T02:42:01;16.40;99.90
43346;DHT22;28937;51.160;4.146;2023-08-06T02:44:28;16.40;99.90
43346;DHT22;28937;51.160;4.146;2023-08-06T02:46:53;16.40;99.90
43346;DHT22;28937;51.160;4.146;2023-08-06T02:49:19;16.40;99.90
43346;DHT22;28937;51.160;4.146;2023-08-06T02:51:46;16.30;99.90
43346;DHT22;28937;51.160;4.146;2023-08-06T02:54:12;16.40;99.90
43346;DHT22;28937;51.160;4.146;2023-08-06T02:56:37;16.30;99.90
43346;DHT22;28937;51.160;4.146;2023-08-06T02:59:03;16.30;99.90
43346;DHT22;28937;51.160;4.146;2023-08-06T03:01:29;16.30;99.90
43346;DHT22;28937;51.160;4.146;2023-08-06T03:03:55;16.30;99.90
43346;DHT22;28937;51.160;4.146;2023-08-06T03:06:20;16.30;99.90
43346;DHT22;28937;51.160;4.146;2023-08-06T03:08:46;16.20;99.90
43346;DHT22;28937;51.160;4.146;2023-08-06T03:11:11;16.20;99.90
43346;DHT22;28937;51.160;4.146;2023-08-06T03:13:37;16.10;99.90
43346;DHT22;28937;51.160;4.146;2023-08-06T03:16:03;16.20;99.90
43346;DHT22;28937;51.160;4.146;2023-08-06T03:18:28;16.20;99.90
43346;DHT22;28937;51.160;4.146;2023-08-06T03:20:54;16.40;99.90
43346;DHT22;28937;51.160;4.146;2023-08-06T03:23:20;16.30;99.90
43346;DHT22;28937;51.160;4.146;2023-08-06T03:25:45;16.50;99.90
43346;DHT22;28937;51.160;4.146;2023-08-06T03:28:11;16.50;99.90
43346;DHT22;28937;51.160;4.146;2023-08-06T03:30:37;16.50;99.90
43346;DHT22;28937;51.160;4.146;2023-08-06T03:33:03;16.40;99.90
43346;DHT22;28937;51.160;4.146;2023-08-06T03:35:29;16.50;99.90
43346;DHT22;28937;51.160;4.146;2023-08-06T03:37:54;16.60;99.90
43346;DHT22;28937;51.160;4.146;2023-08-06T03:40:20;16.50;99.90
43346;DHT22;28937;51.160;4.146;2023-08-06T03:42:46;16.60;99.90
43346;DHT22;28937;51.160;4.146;2023-08-06T03:45:11;16.80;99.90
43346;DHT22;28937;51.160;4.146;2023-08-06T03:47:37;16.70;99.90
43346;DHT22;28937;51.160;4.146;2023-08-06T03:50:03;16.60;99.90
43346;DHT22;28937;51.160;4.146;2023-08-06T03:52:29;16.50;99.90
43346;DHT22;28937;51.160;4.146;2023-08-06T03:54:54;16.50;99.90
43346;DHT22;28937;51.160;4.146;2023-08-06T03:57:20;16.50;99.90
43346;DHT22;28937;51.160;4.146;2023-08-06T03:59:45;16.50;99.90
43346;DHT22;28937;51.160;4.146;2023-08-06T04:02:11;16.60;99.90
43346;DHT22;28937;51.160;4.146;2023-08-06T04:04:36;16.70;99.90
43346;DHT22;28937;51.160;4.146;2023-08-06T04:07:03;16.40;99.90
43346;DHT22;28937;51.160;4.146;2023-08-06T04:09:29;16.40;99.90
43346;DHT22;28937;51.160;4.146;2023-08-06T04:11:55;16.10;99.90
43346;DHT22;28937;51.160;4.146;2023-08-06T04:14:21;16.30;99.90
43346;DHT22;28937;51.160;4.146;2023-08-06T04:16:46;16.30;99.90
43346;DHT22;28937;51.160;4.146;2023-08-06T04:19:12;16.20;99.90
43346;DHT22;28937;51.160;4.146;2023-08-06T04:21:37;16.10;99.90
43346;DHT22;28937;51.160;4.146;2023-08-06T04:24:03;16.20;99.90
43346;DHT22;28937;51.160;4.146;2023-08-06T04:26:29;16.10;99.90
43346;DHT22;28937;51.160;4.146;2023-08-06T04:28:54;16.30;99.90
43346;DHT22;28937;51.160;4.146;2023-08-06T04:31:21;16.40;99.90
43346;DHT22;28937;51.160;4.146;2023-08-06T04:33:47;16.40;99.90
43346;DHT22;28937;51.160;4.146;2023-08-06T04:36:13;16.30;99.90
43346;DHT22;28937;51.160;4.146;2023-08-06T04:38:38;16.40;99.90
43346;DHT22;28937;51.160;4.146;2023-08-06T04:41:06;16.30;99.90
43346;DHT22;28937;51.160;4.146;2023-08-06T04:43:32;16.30;99.90
43346;DHT22;28937;51.160;4.146;2023-08-06T04:45:57;16.30;99.90
43346;DHT22;28937;51.160;4.146;2023-08-06T04:48:23;16.30;99.90
43346;DHT22;28937;51.160;4.146;2023-08-06T04:50:50;16.20;99.90
43346;DHT22;28937;51.160;4.146;2023-08-06T04:53:16;16.10;99.90
43346;DHT22;28937;51.160;4.146;2023-08-06T04:55:42;16.10;99.90
43346;DHT22;28937;51.160;4.146;2023-08-06T04:58:10;16.10;99.90
43346;DHT22;28937;51.160;4.146;2023-08-06T05:00:36;16.10;99.90
43346;DHT22;28937;51.160;4.146;2023-08-06T05:03:01;16.10;99.90
43346;DHT22;28937;51.160;4.146;2023-08-06T05:05:28;16.10;99.90
43346;DHT22;28937;51.160;4.146;2023-08-06T05:07:55;16.10;99.90
43346;DHT22;28937;51.160;4.146;2023-08-06T05:10:27;16.10;99.90
43346;DHT22;28937;51.160;4.146;2023-08-06T05:12:53;16.10;99.90
43346;DHT22;28937;51.160;4.146;2023-08-06T05:15:19;16.00;99.90
43346;DHT22;28937;51.160;4.146;2023-08-06T05:17:45;16.00;99.90
43346;DHT22;28937;51.160;4.146;2023-08-06T05:20:11;16.00;99.90
43346;DHT22;28937;51.160;4.146;2023-08-06T05:22:36;16.00;99.90
43346;DHT22;28937;51.160;4.146;2023-08-06T05:25:02;16.00;99.90
43346;DHT22;28937;51.160;4.146;2023-08-06T05:27:28;16.00;99.90
43346;DHT22;28937;51.160;4.146;2023-08-06T05:29:55;16.00;99.90
43346;DHT22;28937;51.160;4.146;2023-08-06T05:32:22;16.00;99.90
43346;DHT22;28937;51.160;4.146;2023-08-06T05:34:47;16.00;99.90
43346;DHT22;28937;51.160;4.146;2023-08-06T05:37:13;16.00;99.90
43346;DHT22;28937;51.160;4.146;2023-08-06T05:39:38;16.00;99.90
43346;DHT22;28937;51.160;4.146;2023-08-06T05:42:05;15.90;99.90
43346;DHT22;28937;51.160;4.146;2023-08-06T05:44:30;16.00;99.90
43346;DHT22;28937;51.160;4.146;2023-08-06T05:46:56;15.90;99.90
43346;DHT22;28937;51.160;4.146;2023-08-06T05:49:22;15.90;99.90
43346;DHT22;28937;51.160;4.146;2023-08-06T05:51:47;15.90;99.90
43346;DHT22;28937;51.160;4.146;2023-08-06T05:54:14;16.00;99.90
43346;DHT22;28937;51.160;4.146;2023-08-06T05:56:39;15.90;99.90
43346;DHT22;28937;51.160;4.146;2023-08-06T05:59:05;16.00;99.90
43346;DHT22;28937;51.160;4.146;2023-08-06T06:01:30;15.90;99.90
43346;DHT22;28937;51.160;4.146;2023-08-06T06:03:56;15.90;99.90
43346;DHT22;28937;51.160;4.146;2023-08-06T06:06:21;15.80;99.90
43346;DHT22;28937;51.160;4.146;2023-08-06T06:08:47;15.90;99.90
43346;DHT22;28937;51.160;4.146;2023-08-06T06:11:13;15.90;99.90
43346;DHT22;28937;51.160;4.146;2023-08-06T06:13:38;15.80;99.90
43346;DHT22;28937;51.160;4.146;2023-08-06T06:16:04;15.80;99.90
43346;DHT22;28937;51.160;4.146;2023-08-06T06:18:30;15.80;99.90
43346;DHT22;28937;51.160;4.146;2023-08-06T06:20:56;15.90;99.90
43346;DHT22;28937;51.160;4.146;2023-08-06T06:23:22;15.80;99.90
43346;DHT22;28937;51.160;4.146;2023-08-06T06:25:49;15.90;99.90
43346;DHT22;28937;51.160;4.146;2023-08-06T06:28:17;15.90;99.90
43346;DHT22;28937;51.160;4.146;2023-08-06T06:30:42;16.00;99.90
43346;DHT22;28937;51.160;4.146;2023-08-06T06:33:08;16.10;99.90
43346;DHT22;28937;51.160;4.146;2023-08-06T06:35:34;16.10;99.90
43346;DHT22;28937;51.160;4.146;2023-08-06T06:37:59;16.20;99.90
43346;DHT22;28937;51.160;4.146;2023-08-06T06:40:25;16.20;99.90
43346;DHT22;28937;51.160;4.146;2023-08-06T06:42:51;16.20;99.90
43346;DHT22;28937;51.160;4.146;2023-08-06T06:45:17;16.20;99.90
43346;DHT22;28937;51.160;4.146;2023-08-06T06:47:42;16.30;99.90
43346;DHT22;28937;51.160;4.146;2023-08-06T06:50:08;16.30;99.90
43346;DHT22;28937;51.160;4.146;2023-08-06T06:52:34;16.30;99.90
43346;DHT22;28937;51.160;4.146;2023-08-06T06:55:00;16.20;99.90
43346;DHT22;28937;51.160;4.146;2023-08-06T06:57:26;16.10;99.90
43346;DHT22;28937;51.160;4.146;2023-08-06T06:59:51;16.20;99.90
43346;DHT22;28937;51.160;4.146;2023-08-06T07:02:17;16.20;99.90
43346;DHT22;28937;51.160;4.146;2023-08-06T07:04:43;16.30;99.90
43346;DHT22;28937;51.160;4.146;2023-08-06T07:07:08;16.40;99.90
43346;DHT22;28937;51.160;4.146;2023-08-06T07:09:34;16.20;99.90
43346;DHT22;28937;51.160;4.146;2023-08-06T07:11:59;16.20;99.90
43346;DHT22;28937;51.160;4.146;2023-08-06T07:14:26;16.20;99.90
43346;DHT22;28937;51.160;4.146;2023-08-06T07:16:51;16.10;99.90
43346;DHT22;28937;51.160;4.146;2023-08-06T07:19:17;16.10;99.90
43346;DHT22;28937;51.160;4.146;2023-08-06T07:21:42;16.10;99.90
43346;DHT22;28937;51.160;4.146;2023-08-06T07:24:08;16.10;99.90
43346;DHT22;28937;51.160;4.146;2023-08-06T07:26:33;16.30;99.90
43346;DHT22;28937;51.160;4.146;2023-08-06T07:28:59;16.70;99.90
43346;DHT22;28937;51.160;4.146;2023-08-06T07:31:25;16.80;99.90
43346;DHT22;28937;51.160;4.146;2023-08-06T07:33:51;16.90;99.90
43346;DHT22;28937;51.160;4.146;2023-08-06T07:36:16;17.30;99.90
43346;DHT22;28937;51.160;4.146;2023-08-06T07:38:42;17.50;99.90
43346;DHT22;28937;51.160;4.146;2023-08-06T07:41:08;17.60;99.90
43346;DHT22;28937;51.160;4.146;2023-08-06T07:43:34;17.80;99.90
43346;DHT22;28937;51.160;4.146;2023-08-06T07:46:01;17.80;99.90
43346;DHT22;28937;51.160;4.146;2023-08-06T07:48:27;17.90;99.90
43346;DHT22;28937;51.160;4.146;2023-08-06T07:50:54;18.00;99.90
43346;DHT22;28937;51.160;4.146;2023-08-06T07:53:23;18.00;99.90
43346;DHT22;28937;51.160;4.146;2023-08-06T07:55:52;18.10;99.90
43346;DHT22;28937;51.160;4.146;2023-08-06T07:58:18;17.80;99.90
43346;DHT22;28937;51.160;4.146;2023-08-06T08:00:44;17.70;99.90
43346;DHT22;28937;51.160;4.146;2023-08-06T08:03:11;18.00;99.90
43346;DHT22;28937;51.160;4.146;2023-08-06T08:05:38;17.80;99.90
43346;DHT22;28937;51.160;4.146;2023-08-06T08:08:04;18.10;99.90
43346;DHT22;28937;51.160;4.146;2023-08-06T08:10:31;18.00;99.90
43346;DHT22;28937;51.160;4.146;2023-08-06T08:12:57;18.00;99.90
43346;DHT22;28937;51.160;4.146;2023-08-06T08:15:22;17.90;99.90
43346;DHT22;28937;51.160;4.146;2023-08-06T08:17:48;17.50;99.90
43346;DHT22;28937;51.160;4.146;2023-08-06T08:20:16;17.40;99.90
43346;DHT22;28937;51.160;4.146;2023-08-06T08:22:41;17.20;99.90
43346;DHT22;28937;51.160;4.146;2023-08-06T08:25:07;17.20;99.90
43346;DHT22;28937;51.160;4.146;2023-08-06T08:27:33;17.20;99.90
43346;DHT22;28937;51.160;4.146;2023-08-06T08:29:58;17.20;99.90
43346;DHT22;28937;51.160;4.146;2023-08-06T08:32:24;17.10;99.90
43346;DHT22;28937;51.160;4.146;2023-08-06T08:34:49;16.90;99.90
43346;DHT22;28937;51.160;4.146;2023-08-06T08:37:15;17.10;99.90
43346;DHT22;28937;51.160;4.146;2023-08-06T08:39:41;17.00;99.90
43346;DHT22;28937;51.160;4.146;2023-08-06T08:42:06;16.90;99.90
43346;DHT22;28937;51.160;4.146;2023-08-06T08:44:32;17.30;99.90
43346;DHT22;28937;51.160;4.146;2023-08-06T08:46:59;17.40;99.90
43346;DHT22;28937;51.160;4.146;2023-08-06T08:49:26;17.30;99.90
43346;DHT22;28937;51.160;4.146;2023-08-06T08:51:54;17.40;99.90
43346;DHT22;28937;51.160;4.146;2023-08-06T08:54:23;17.70;99.90
43346;DHT22;28937;51.160;4.146;2023-08-06T08:56:49;17.70;99.90
43346;DHT22;28937;51.160;4.146;2023-08-06T08:59:15;17.60;99.90
43346;DHT22;28937;51.160;4.146;2023-08-06T09:01:42;17.80;99.90
43346;DHT22;28937;51.160;4.146;2023-08-06T09:04:09;17.70;99.90
43346;DHT22;28937;51.160;4.146;2023-08-06T09:06:37;17.70;99.90
43346;DHT22;28937;51.160;4.146;2023-08-06T09:09:09;17.90;99.90
43346;DHT22;28937;51.160;4.146;2023-08-06T09:11:42;17.90;99.90
43346;DHT22;28937;51.160;4.146;2023-08-06T09:14:08;17.60;99.90
43346;DHT22;28937;51.160;4.146;2023-08-06T09:16:38;17.70;99.90
43346;DHT22;28937;51.160;4.146;2023-08-06T09:19:11;17.60;99.90
43346;DHT22;28937;51.160;4.146;2023-08-06T09:21:39;17.60;99.90
43346;DHT22;28937;51.160;4.146;2023-08-06T09:24:11;17.30;99.90
43346;DHT22;28937;51.160;4.146;2023-08-06T09:26:41;17.30;99.90
43346;DHT22;28937;51.160;4.146;2023-08-06T09:29:09;17.40;99.90
43346;DHT22;28937;51.160;4.146;2023-08-06T09:31:50;17.40;99.90
43346;DHT22;28937;51.160;4.146;2023-08-06T09:34:22;17.50;99.90
43346;DHT22;28937;51.160;4.146;2023-08-06T09:36:50;17.80;99.90
43346;DHT22;28937;51.160;4.146;2023-08-06T09:39:31;17.70;99.90
43346;DHT22;28937;51.160;4.146;2023-08-06T09:41:58;17.40;99.90
43346;DHT22;28937;51.160;4.146;2023-08-06T09:44:25;17.30;99.90
43346;DHT22;28937;51.160;4.146;2023-08-06T09:46:54;17.30;99.90
43346;DHT22;28937;51.160;4.146;2023-08-06T09:49:25;17.30;99.90
43346;DHT22;28937;51.160;4.146;2023-08-06T09:51:54;17.30;99.90
43346;DHT22;28937;51.160;4.146;2023-08-06T09:54:24;17.30;99.90
43346;DHT22;28937;51.160;4.146;2023-08-06T09:56:50;17.30;99.90
43346;DHT22;28937;51.160;4.146;2023-08-06T09:59:17;17.20;99.90
43346;DHT22;28937;51.160;4.146;2023-08-06T10:01:43;16.90;99.90
43346;DHT22;28937;51.160;4.146;2023-08-06T10:04:09;17.30;99.90
43346;DHT22;28937;51.160;4.146;2023-08-06T10:06:37;17.30;99.90
43346;DHT22;28937;51.160;4.146;2023-08-06T10:09:03;17.40;99.90
43346;DHT22;28937;51.160;4.146;2023-08-06T10:11:30;17.10;99.90
43346;DHT22;28937;51.160;4.146;2023-08-06T10:14:10;16.90;99.90
43346;DHT22;28937;51.160;4.146;2023-08-06T10:16:37;16.70;99.90
43346;DHT22;28937;51.160;4.146;2023-08-06T10:19:04;16.70;99.90
43346;DHT22;28937;51.160;4.146;2023-08-06T10:21:33;16.80;99.90
43346;DHT22;28937;51.160;4.146;2023-08-06T10:24:00;17.10;99.90
43346;DHT22;28937;51.160;4.146;2023-08-06T10:26:30;17.40;99.90
43346;DHT22;28937;51.160;4.146;2023-08-06T10:28:56;17.20;99.90
43346;DHT22;28937;51.160;4.146;2023-08-06T10:32:14;17.20;99.90
43346;DHT22;28937;51.160;4.146;2023-08-06T10:37:21;17.40;99.90
43346;DHT22;28937;51.160;4.146;2023-08-06T10:39:52;17.50;99.90
43346;DHT22;28937;51.160;4.146;2023-08-06T10:42:27;17.70;99.90
43346;DHT22;28937;51.160;4.146;2023-08-06T10:47:41;17.30;99.90
43346;DHT22;28937;51.160;4.146;2023-08-06T10:50:10;16.90;99.90
43346;DHT22;28937;51.160;4.146;2023-08-06T10:52:36;16.80;99.90
43346;DHT22;28937;51.160;4.146;2023-08-06T10:55:01;16.80;99.90
43346;DHT22;28937;51.160;4.146;2023-08-06T10:57:27;16.90;99.90
43346;DHT22;28937;51.160;4.146;2023-08-06T10:59:53;16.90;99.90
43346;DHT22;28937;51.160;4.146;2023-08-06T11:02:18;16.80;99.90
43346;DHT22;28937;51.160;4.146;2023-08-06T11:04:44;16.80;99.90
43346;DHT22;28937;51.160;4.146;2023-08-06T11:07:10;16.80;99.90
43346;DHT22;28937;51.160;4.146;2023-08-06T11:09:36;16.40;99.90
43346;DHT22;28937;51.160;4.146;2023-08-06T11:12:02;16.30;99.90
43346;DHT22;28937;51.160;4.146;2023-08-06T11:14:30;16.20;99.90
43346;DHT22;28937;51.160;4.146;2023-08-06T11:16:56;16.30;99.90
43346;DHT22;28937;51.160;4.146;2023-08-06T11:19:22;16.30;99.90
43346;DHT22;28937;51.160;4.146;2023-08-06T11:21:51;16.30;99.90
43346;DHT22;28937;51.160;4.146;2023-08-06T11:24:16;16.50;99.90
43346;DHT22;28937;51.160;4.146;2023-08-06T11:26:42;16.40;99.90
43346;DHT22;28937;51.160;4.146;2023-08-06T11:29:10;16.40;99.90
43346;DHT22;28937;51.160;4.146;2023-08-06T11:31:36;16.30;99.90
43346;DHT22;28937;51.160;4.146;2023-08-06T11:34:02;16.30;99.90
43346;DHT22;28937;51.160;4.146;2023-08-06T11:36:36;16.30;99.90
43346;DHT22;28937;51.160;4.146;2023-08-06T11:39:05;16.50;99.90
43346;DHT22;28937;51.160;4.146;2023-08-06T11:41:31;16.50;99.90
43346;DHT22;28937;51.160;4.146;2023-08-06T11:43:59;16.40;99.90
43346;DHT22;28937;51.160;4.146;2023-08-06T11:46:25;16.50;99.90
43346;DHT22;28937;51.160;4.146;2023-08-06T11:48:55;16.80;99.90
43346;DHT22;28937;51.160;4.146;2023-08-06T11:51:27;16.90;99.90
43346;DHT22;28937;51.160;4.146;2023-08-06T11:53:57;16.80;99.90
43346;DHT22;28937;51.160;4.146;2023-08-06T11:56:23;16.90;99.90
43346;DHT22;28937;51.160;4.146;2023-08-06T11:58:49;16.80;99.90
43346;DHT22;28937;51.160;4.146;2023-08-06T12:01:15;16.70;99.90
43346;DHT22;28937;51.160;4.146;2023-08-06T12:03:40;16.90;99.90
43346;DHT22;28937;51.160;4.146;2023-08-06T12:06:06;16.80;99.90
43346;DHT22;28937;51.160;4.146;2023-08-06T12:08:33;17.00;99.90
43346;DHT22;28937;51.160;4.146;2023-08-06T12:10:58;17.20;99.90
43346;DHT22;28937;51.160;4.146;2023-08-06T12:13:24;17.00;99.90
43346;DHT22;28937;51.160;4.146;2023-08-06T12:15:50;17.30;99.90
43346;DHT22;28937;51.160;4.146;2023-08-06T12:18:18;17.20;99.90
43346;DHT22;28937;51.160;4.146;2023-08-06T12:20:43;17.30;99.90
43346;DHT22;28937;51.160;4.146;2023-08-06T12:23:09;17.50;99.90
43346;DHT22;28937;51.160;4.146;2023-08-06T12:25:35;17.30;99.90
43346;DHT22;28937;51.160;4.146;2023-08-06T12:28:01;17.10;99.90
43346;DHT22;28937;51.160;4.146;2023-08-06T12:30:26;17.10;99.90
43346;DHT22;28937;51.160;4.146;2023-08-06T12:32:52;16.90;99.90
43346;DHT22;28937;51.160;4.146;2023-08-06T12:35:18;17.00;99.90
43346;DHT22;28937;51.160;4.146;2023-08-06T12:37:43;16.90;99.90
43346;DHT22;28937;51.160;4.146;2023-08-06T12:40:11;17.30;99.90
43346;DHT22;28937;51.160;4.146;2023-08-06T12:42:36;17.10;99.90
43346;DHT22;28937;51.160;4.146;2023-08-06T12:45:02;16.80;99.90
43346;DHT22;28937;51.160;4.146;2023-08-06T12:47:28;16.60;99.90
43346;DHT22;28937;51.160;4.146;2023-08-06T12:49:53;16.50;99.90
43346;DHT22;28937;51.160;4.146;2023-08-06T12:52:19;16.60;99.90
43346;DHT22;28937;51.160;4.146;2023-08-06T12:54:45;16.80;99.90
43346;DHT22;28937;51.160;4.146;2023-08-06T12:57:11;16.80;99.90
43346;DHT22;28937;51.160;4.146;2023-08-06T12:59:37;17.00;99.90
43346;DHT22;28937;51.160;4.146;2023-08-06T13:02:03;17.10;99.90
43346;DHT22;28937;51.160;4.146;2023-08-06T13:04:29;16.90;99.90
43346;DHT22;28937;51.160;4.146;2023-08-06T13:06:55;17.00;99.90
43346;DHT22;28937;51.160;4.146;2023-08-06T13:09:20;17.30;99.90
43346;DHT22;28937;51.160;4.146;2023-08-06T13:11:47;17.10;99.90
43346;DHT22;28937;51.160;4.146;2023-08-06T13:14:15;17.00;99.90
43346;DHT22;28937;51.160;4.146;2023-08-06T13:16:43;16.90;99.90
43346;DHT22;28937;51.160;4.146;2023-08-06T13:19:09;16.90;99.90
43346;DHT22;28937;51.160;4.146;2023-08-06T13:24:06;16.60;99.90
43346;DHT22;28937;51.160;4.146;2023-08-06T13:26:32;16.70;99.90
43346;DHT22;28937;51.160;4.146;2023-08-06T13:28:58;16.60;99.90
43346;DHT22;28937;51.160;4.146;2023-08-06T13:31:24;16.60;99.90
43346;DHT22;28937;51.160;4.146;2023-08-06T13:33:50;16.40;99.90
43346;DHT22;28937;51.160;4.146;2023-08-06T13:36:16;16.40;99.90
43346;DHT22;28937;51.160;4.146;2023-08-06T13:38:42;16.50;99.90
43346;DHT22;28937;51.160;4.146;2023-08-06T13:41:08;16.60;99.90
43346;DHT22;28937;51.160;4.146;2023-08-06T13:43:34;16.70;99.90
43346;DHT22;28937;51.160;4.146;2023-08-06T13:45:59;16.80;99.90
43346;DHT22;28937;51.160;4.146;2023-08-06T13:48:25;16.80;99.90
43346;DHT22;28937;51.160;4.146;2023-08-06T13:50:51;16.90;99.90
43346;DHT22;28937;51.160;4.146;2023-08-06T13:53:16;16.70;99.90
43346;DHT22;28937;51.160;4.146;2023-08-06T13:55:42;16.80;99.90
43346;DHT22;28937;51.160;4.146;2023-08-06T13:58:08;16.80;99.90
43346;DHT22;28937;51.160;4.146;2023-08-06T14:00:35;17.00;99.90
43346;DHT22;28937;51.160;4.146;2023-08-06T14:03:01;17.00;99.90
43346;DHT22;28937;51.160;4.146;2023-08-06T14:05:26;16.70;99.90
43346;DHT22;28937;51.160;4.146;2023-08-06T14:07:52;16.50;99.90
43346;DHT22;28937;51.160;4.146;2023-08-06T14:10:18;16.40;99.90
43346;DHT22;28937;51.160;4.146;2023-08-06T14:12:43;16.30;99.90
43346;DHT22;28937;51.160;4.146;2023-08-06T14:15:10;16.30;99.90
43346;DHT22;28937;51.160;4.146;2023-08-06T14:17:35;16.30;99.90
43346;DHT22;28937;51.160;4.146;2023-08-06T14:20:01;16.30;99.90
43346;DHT22;28937;51.160;4.146;2023-08-06T14:22:28;16.30;99.90
43346;DHT22;28937;51.160;4.146;2023-08-06T14:24:56;16.40;99.90
43346;DHT22;28937;51.160;4.146;2023-08-06T14:27:21;16.40;99.90
43346;DHT22;28937;51.160;4.146;2023-08-06T14:29:47;16.40;99.90
43346;DHT22;28937;51.160;4.146;2023-08-06T14:32:13;16.50;99.90
43346;DHT22;28937;51.160;4.146;2023-08-06T14:34:38;16.60;99.90
43346;DHT22;28937;51.160;4.146;2023-08-06T14:37:04;16.80;99.90
43346;DHT22;28937;51.160;4.146;2023-08-06T14:39:31;16.70;99.90
43346;DHT22;28937;51.160;4.146;2023-08-06T14:41:56;17.10;99.90
43346;DHT22;28937;51.160;4.146;2023-08-06T14:44:22;16.80;99.90
43346;DHT22;28937;51.160;4.146;2023-08-06T14:46:47;16.50;99.90
43346;DHT22;28937;51.160;4.146;2023-08-06T14:49:13;16.40;99.90
43346;DHT22;28937;51.160;4.146;2023-08-06T14:51:39;16.30;99.90
43346;DHT22;28937;51.160;4.146;2023-08-06T14:54:05;16.20;99.90
43346;DHT22;28937;51.160;4.146;2023-08-06T14:56:30;16.20;99.90
43346;DHT22;28937;51.160;4.146;2023-08-06T14:58:56;16.20;99.90
43346;DHT22;28937;51.160;4.146;2023-08-06T15:01:22;16.30;99.90
43346;DHT22;28937;51.160;4.146;2023-08-06T15:03:47;16.00;99.90
43346;DHT22;28937;51.160;4.146;2023-08-06T15:06:13;15.90;99.90
43346;DHT22;28937;51.160;4.146;2023-08-06T15:08:38;15.90;99.90
43346;DHT22;28937;51.160;4.146;2023-08-06T15:11:04;16.40;99.90
43346;DHT22;28937;51.160;4.146;2023-08-06T15:13:30;16.20;99.90
43346;DHT22;28937;51.160;4.146;2023-08-06T15:15:55;16.30;99.90
43346;DHT22;28937;51.160;4.146;2023-08-06T15:18:21;16.50;99.90
43346;DHT22;28937;51.160;4.146;2023-08-06T15:20:47;16.60;99.90
43346;DHT22;28937;51.160;4.146;2023-08-06T15:23:12;17.50;99.90
43346;DHT22;28937;51.160;4.146;2023-08-06T15:25:38;17.80;99.90
43346;DHT22;28937;51.160;4.146;2023-08-06T15:28:04;18.30;99.90
43346;DHT22;28937;51.160;4.146;2023-08-06T15:30:30;18.60;99.90
43346;DHT22;28937;51.160;4.146;2023-08-06T15:32:56;18.90;99.90
43346;DHT22;28937;51.160;4.146;2023-08-06T15:35:21;18.90;99.90
43346;DHT22;28937;51.160;4.146;2023-08-06T15:37:47;18.90;99.90
43346;DHT22;28937;51.160;4.146;2023-08-06T15:40:13;18.80;99.90
43346;DHT22;28937;51.160;4.146;2023-08-06T15:42:38;18.80;99.90